Time;durP1;ratioP1;P1;durP2;ratioP2;P2;SDS_P1;SDS_P2;PMS_P1;PMS_P2;Temp;Humidity;BMP_temperature;BMP_pressure;BME280_temperature;BME280_humidity;BME280_pressure;Samples;Min_cycle;Max_cycle;Signal;HPM_P1;HPM_P2
2022/12/08 00:01:09;;;;;;;34.28;24.75;;;;;;;1.98;100.00;101072.66;5073448;28;20054;-87
2022/12/08 00:03:35;;;;;;;32.78;24.55;;;;;;;1.70;100.00;101018.97;5073359;28;20054;-87
2022/12/08 00:11:30;;;;;;;30.75;22.63;;;;;;;1.80;100.00;101035.72;5073397;28;20075;-87
2022/12/08 00:13:55;;;;;;;31.83;23.73;;;;;;;2.40;100.00;101129.38;5073283;28;20017;-86
2022/12/08 00:16:20;;;;;;;34.10;23.75;;;;;;;1.89;100.00;101045.69;5073271;28;20020;-86
2022/12/08 00:18:46;;;;;;;30.98;22.77;;;;;;;2.40;100.00;101119.19;5072926;28;20024;-87
2022/12/08 00:21:11;;;;;;;32.63;23.02;;;;;;;2.16;100.00;101067.09;5071981;28;20027;-87
2022/12/08 00:23:36;;;;;;;32.90;23.80;;;;;;;1.49;100.00;100958.41;5071535;28;20041;-86
2022/12/08 00:26:06;;;;;;;34.92;23.27;;;;;;;2.39;100.00;101101.38;5073140;28;20176;-86
2022/12/08 00:28:33;;;;;;;30.75;23.23;;;;;;;2.42;100.00;101108.94;5073019;28;20021;-86
2022/12/08 00:30:58;;;;;;;33.20;23.25;;;;;;;2.04;100.00;101043.63;5073152;28;20024;-86
2022/12/08 00:33:26;;;;;;;31.85;22.95;;;;;;;2.11;100.00;101060.44;5072823;28;20024;-86
2022/12/08 00:35:51;;;;;;;33.30;22.77;;;;;;;2.29;100.00;101098.22;5073332;28;20025;-86
2022/12/08 00:38:17;;;;;;;29.60;21.63;;;;;;;2.36;100.00;101104.84;5072771;28;20049;-84
2022/12/08 00:40:46;;;;;;;32.25;22.35;;;;;;;2.07;100.00;101041.88;5072901;28;20162;-87
2022/12/08 00:43:23;;;;;;;29.50;22.38;;;;;;;2.06;100.00;101046.97;5073067;28;20521;-86
2022/12/08 00:45:49;;;;;;;34.85;23.23;;;;;;;1.58;100.00;100963.28;5073221;28;20020;-86
2022/12/08 00:48:14;;;;;;;31.85;21.80;;;;;;;1.29;100.00;100913.91;5072758;28;20104;-87
2022/12/08 00:50:39;;;;;;;32.30;21.40;;;;;;;1.73;100.00;100967.97;5072931;28;20033;-87
2022/12/08 00:53:04;;;;;;;28.85;20.55;;;;;;;1.63;100.00;100944.47;5073120;28;20021;-86
2022/12/08 00:55:30;;;;;;;30.02;21.58;;;;;;;2.51;100.00;101084.06;5072809;28;20087;-86
2022/12/08 00:57:55;;;;;;;28.30;20.52;;;;;;;1.41;100.00;100905.13;5072766;28;20024;-86
2022/12/08 01:00:21;;;;;;;28.98;20.05;;;;;;;1.77;100.00;100961.97;5072737;28;20025;-86
2022/12/08 01:02:46;;;;;;;26.67;20.20;;;;;;;2.00;100.00;100989.41;5073617;28;20028;-86
2022/12/08 01:05:11;;;;;;;30.73;21.25;;;;;;;2.35;100.00;101041.16;5072784;28;20035;-86
2022/12/08 01:07:36;;;;;;;29.95;19.98;;;;;;;2.56;100.00;101073.75;5072763;28;20068;-86
2022/12/08 01:10:02;;;;;;;28.25;20.65;;;;;;;2.42;100.00;101048.59;5054306;28;20112;-85
2022/12/08 01:12:29;;;;;;;28.40;19.40;;;;;;;2.06;100.00;100991.78;5072702;28;20464;-86
2022/12/08 01:14:55;;;;;;;28.10;19.92;;;;;;;2.29;100.00;101025.16;5072603;28;20030;-86
2022/12/08 01:17:20;;;;;;;31.15;20.08;;;;;;;2.47;100.00;101058.69;5072640;28;20032;-86
2022/12/08 01:19:46;;;;;;;27.85;19.60;;;;;;;1.66;100.00;100926.56;5072573;28;20017;-86
2022/12/08 01:22:11;;;;;;;27.92;19.35;;;;;;;2.26;100.00;101027.78;5072593;28;20021;-86
2022/12/08 01:24:36;;;;;;;26.58;19.48;;;;;;;2.62;100.00;101078.69;5072517;28;20029;-86
2022/12/08 01:27:02;;;;;;;29.48;20.80;;;;;;;2.59;100.00;101064.31;5072582;28;20024;-86
2022/12/08 01:29:27;;;;;;;25.85;19.08;;;;;;;2.62;100.00;101063.38;5072475;28;20029;-86
2022/12/08 01:32:02;;;;;;;27.13;19.60;;;;;;;2.71;100.00;101081.00;5072647;28;20461;-84
2022/12/08 01:34:27;;;;;;;25.10;18.48;;;;;;;2.72;100.00;101075.00;5054497;28;20028;-86
2022/12/08 01:37:03;;;;;;;28.55;18.58;;;;;;;2.32;100.00;101006.41;5072650;28;20039;-84
2022/12/08 01:39:29;;;;;;;25.48;18.30;;;;;;;1.66;100.00;100895.19;5072564;28;20040;-86
2022/12/08 01:42:03;;;;;;;24.17;18.40;;;;;;;1.61;100.00;100881.75;5075523;28;20461;-86
2022/12/08 01:44:29;;;;;;;24.48;17.67;;;;;;;2.73;100.00;101069.03;5076167;28;20058;-86
2022/12/08 01:46:55;;;;;;;25.02;16.92;;;;;;;2.77;100.00;101059.59;5076039;28;20071;-86
2022/12/08 01:49:33;;;;;;;24.77;16.15;;;;;;;2.75;100.00;101058.78;5075968;28;20031;-86
2022/12/08 01:52:03;;;;;;;24.95;16.58;;;;;;;2.72;100.00;101059.72;5076112;28;20029;-84
2022/12/08 01:54:35;;;;;;;22.60;16.23;;;;;;;2.47;100.00;101013.66;5075895;28;20024;-86
2022/12/08 01:57:13;;;;;;;22.83;16.42;;;;;;;2.70;100.00;101051.28;5057571;28;20063;-85
2022/12/08 01:59:48;;;;;;;23.55;16.35;;;;;;;2.69;100.00;101047.06;5075636;28;20108;-86
2022/12/08 02:02:14;;;;;;;24.55;16.58;;;;;;;2.70;100.00;101043.63;5075665;28;20085;-84
2022/12/08 02:04:39;;;;;;;23.45;17.10;;;;;;;2.67;100.00;101038.63;5075874;28;20467;-85
2022/12/08 02:07:06;;;;;;;21.65;15.70;;;;;;;2.40;100.00;101001.94;5075677;28;20032;-86
2022/12/08 02:09:32;;;;;;;22.67;15.82;;;;;;;2.30;100.00;100983.50;5075625;28;20021;-86
2022/12/08 02:11:59;;;;;;;23.35;15.98;;;;;;;2.61;100.00;101031.13;5075260;28;20054;-84
2022/12/08 02:14:27;;;;;;;22.48;16.17;;;;;;;1.57;100.00;100870.78;5075442;28;20028;-85
2022/12/08 02:16:58;;;;;;;23.50;15.70;;;;;;;2.61;100.00;101028.56;5074066;28;20045;-86
2022/12/08 02:19:48;;;;;;;22.55;16.48;;;;;;;2.42;100.00;100999.34;5075539;28;20033;-86
2022/12/08 02:25:11;;;;;;;21.92;16.08;;;;;;;2.61;100.00;101025.19;5070923;28;20045;-85
2022/12/08 02:28:01;;;;;;;20.55;15.25;;;;;;;2.61;100.00;101020.91;5060880;22;20077;-85
2022/12/08 02:30:59;;;;;;;21.85;14.65;;;;;;;2.43;100.00;100991.66;5054158;28;20075;-86
2022/12/08 02:33:43;;;;;;;22.15;14.38;;;;;;;2.58;100.00;101009.09;5054100;28;20052;-86
2022/12/08 02:36:11;;;;;;;22.77;16.38;;;;;;;2.55;100.00;100998.97;5055166;28;20508;-86
2022/12/08 02:38:49;;;;;;;21.70;15.57;;;;;;;2.55;100.00;101003.22;5054945;28;20029;-85
2022/12/08 02:41:19;;;;;;;20.23;14.50;;;;;;;2.52;100.00;101000.78;5055002;28;20100;-85
2022/12/08 02:44:16;;;;;;;22.25;14.98;;;;;;;1.86;100.00;100887.88;5054933;28;20021;-84
2022/12/08 02:46:54;;;;;;;19.45;13.63;;;;;;;2.50;100.00;100995.72;5054957;28;20116;-86
2022/12/08 02:49:19;;;;;;;20.58;13.70;;;;;;;2.33;100.00;100959.66;5054965;28;20530;-86
2022/12/08 02:51:45;;;;;;;21.70;14.18;;;;;;;2.22;100.00;100942.09;5053772;28;20018;-84
2022/12/08 02:54:13;;;;;;;17.35;12.93;;;;;;;1.90;100.00;100889.47;5054503;28;20053;-87
2022/12/08 02:57:02;;;;;;;17.95;12.88;;;;;;;2.50;100.00;100982.97;5054531;28;20033;-86
2022/12/08 03:00:00;;;;;;;18.40;11.70;;;;;;;2.51;100.00;100971.91;5054374;28;20560;-86
2022/12/08 03:02:58;;;;;;;17.13;11.15;;;;;;;2.53;100.00;100982.06;5012927;28;20184;-85
2022/12/08 03:05:42;;;;;;;17.45;11.55;;;;;;;2.56;100.00;100994.75;5012898;28;20030;-86
2022/12/08 03:08:21;;;;;;;17.20;10.65;;;;;;;2.45;100.00;100964.41;5012642;28;20514;-84
2022/12/08 03:11:02;;;;;;;18.25;10.27;;;;;;;1.83;100.00;100861.66;5012834;28;20113;-84
2022/12/08 03:13:38;;;;;;;15.68;9.73;;;;;;;2.08;100.00;100893.25;5012548;28;20037;-86
2022/12/08 03:16:07;;;;;;;14.40;9.40;;;;;;;2.58;100.00;100960.66;5012705;28;20030;-85
2022/12/08 03:18:45;;;;;;;13.18;8.40;;;;;;;2.74;100.00;100984.00;5012629;28;20038;-83
2022/12/08 03:21:15;;;;;;;14.43;8.82;;;;;;;2.50;100.00;100942.19;5012279;28;20141;-86
2022/12/08 03:23:45;;;;;;;13.55;8.38;;;;;;;2.82;100.00;100984.63;5012248;28;20030;-86
2022/12/08 03:26:27;;;;;;;17.33;8.35;;;;;;;1.84;100.00;100812.41;5012349;28;20034;-85
2022/12/08 03:28:53;;;;;;;12.38;7.53;;;;;;;1.88;100.00;100803.81;5011719;28;20049;-84
2022/12/08 03:31:31;;;;;;;12.20;7.50;;;;;;;2.36;100.00;100880.59;5012187;28;20105;-86
2022/12/08 03:33:58;;;;;;;12.20;7.35;;;;;;;1.87;100.00;100809.75;5012339;28;20052;-84
2022/12/08 03:36:24;;;;;;;11.73;7.80;;;;;;;2.56;100.00;100918.25;5012179;28;20073;-85
2022/12/08 03:38:53;;;;;;;11.95;7.28;;;;;;;2.21;100.00;100851.25;5025906;28;20041;-85
2022/12/08 03:41:22;;;;;;;11.80;7.13;;;;;;;2.75;100.00;100942.34;5053771;28;20032;-86
2022/12/08 03:43:51;;;;;;;13.75;7.63;;;;;;;1.71;100.00;100771.19;5053845;28;20438;-86
2022/12/08 03:46:19;;;;;;;13.27;7.90;;;;;;;2.22;100.00;100858.03;5053677;28;20086;-85
2022/12/08 03:48:44;;;;;;;13.40;8.15;;;;;;;2.53;100.00;100901.31;5052342;28;20051;-86
2022/12/08 03:51:10;;;;;;;15.98;8.65;;;;;;;2.75;100.00;100936.38;5052159;28;20484;-86
2022/12/08 03:53:35;;;;;;;16.08;8.88;;;;;;;2.14;100.00;100833.66;5053677;28;20427;-86
2022/12/08 03:56:05;;;;;;;16.15;8.80;;;;;;;2.76;100.00;100928.72;5053767;28;20032;-86
2022/12/08 03:58:34;;;;;;;14.60;9.52;;;;;;;1.67;100.00;100760.25;5053195;28;20037;-86
2022/12/08 04:00:59;;;;;;;16.50;9.95;;;;;;;2.25;100.00;100841.81;5051794;28;20029;-85
2022/12/08 04:03:28;;;;;;;16.40;11.00;;;;;;;1.77;100.00;100758.28;5052932;28;20384;-86
2022/12/08 04:06:29;;;;;;;16.35;11.05;;;;;;;1.93;100.00;100779.88;5055881;22;20076;-85
2022/12/08 04:09:00;;;;;;;19.80;10.80;;;;;;;2.56;100.00;100883.41;5011848;28;20497;-86
2022/12/08 04:11:25;;;;;;;18.45;11.63;;;;;;;1.85;100.00;100758.88;4995297;28;20289;-86
2022/12/08 04:13:50;;;;;;;22.58;12.45;;;;;;;2.81;100.00;100921.75;5011448;28;20145;-85
2022/12/08 04:16:22;;;;;;;18.73;12.45;;;;;;;2.21;100.00;100804.56;5011431;28;20037;-85
2022/12/08 04:19:03;;;;;;;20.73;13.90;;;;;;;2.68;100.00;100887.31;5017460;22;20053;-86
2022/12/08 04:21:33;;;;;;;22.60;13.90;;;;;;;1.55;100.00;100698.66;5093425;28;20514;-86
2022/12/08 04:23:58;;;;;;;22.05;14.30;;;;;;;1.71;100.00;100725.38;5093482;28;20052;-86
2022/12/08 04:26:33;;;;;;;24.70;14.88;;;;;;;1.86;100.00;100745.28;5092164;28;20058;-85
2022/12/08 04:29:01;;;;;;;24.33;15.93;;;;;;;2.57;100.00;100859.59;5093337;28;20024;-85
2022/12/08 04:31:36;;;;;;;25.20;15.57;;;;;;;2.80;100.00;100903.94;5093204;28;20032;-86
2022/12/08 04:34:01;;;;;;;24.27;15.45;;;;;;;2.15;100.00;100799.66;5092173;28;20031;-85
2022/12/08 04:36:26;;;;;;;27.83;15.85;;;;;;;1.64;100.00;100718.75;5093406;28;20020;-86
2022/12/08 04:38:52;;;;;;;25.90;16.15;;;;;;;2.81;100.00;100908.16;5093344;28;20028;-86
2022/12/08 04:41:24;;;;;;;23.08;15.38;;;;;;;2.39;100.00;100837.16;5093153;28;20020;-86
2022/12/08 04:43:55;;;;;;;26.17;16.42;;;;;;;2.41;100.00;100829.47;5093304;28;20031;-84
2022/12/08 04:46:26;;;;;;;25.95;16.33;;;;;;;2.15;100.00;100786.91;5094329;28;20028;-85
2022/12/08 04:48:54;;;;;;;26.50;16.02;;;;;;;2.06;100.00;100775.28;5092255;28;20039;-86
2022/12/08 04:51:32;;;;;;;24.48;15.98;;;;;;;2.63;100.00;100861.09;5093197;28;20028;-85
2022/12/08 04:54:03;;;;;;;26.52;17.02;;;;;;;1.87;100.00;100735.94;5093279;28;20103;-85
2022/12/08 04:56:32;;;;;;;28.38;17.23;;;;;;;1.85;100.00;100733.44;5093177;28;20074;-85
2022/12/08 04:59:04;;;;;;;27.08;16.80;;;;;;;1.44;100.00;100668.44;5092937;28;20031;-84
2022/12/08 05:01:32;;;;;;;28.25;16.30;;;;;;;2.61;100.00;100867.97;5091463;28;20059;-84
2022/12/08 05:04:04;;;;;;;28.15;16.55;;;;;;;1.93;100.00;100754.41;5093088;28;20099;-85
2022/12/08 05:06:35;;;;;;;27.65;16.25;;;;;;;1.48;100.00;100675.13;5093054;28;20055;-85
2022/12/08 05:09:00;;;;;;;24.50;16.25;;;;;;;1.78;100.00;100731.97;5093171;28;20047;-85
2022/12/08 05:11:26;;;;;;;25.35;16.45;;;;;;;2.27;100.00;100807.78;5093031;28;20063;-85
2022/12/08 05:13:51;;;;;;;23.17;15.60;;;;;;;2.87;100.00;100910.56;5092536;28;20073;-85
2022/12/08 05:16:16;;;;;;;24.80;15.15;;;;;;;2.70;100.00;100877.88;5095428;28;20016;-83
2022/12/08 05:18:42;;;;;;;17.80;10.80;;;;;;;1.81;100.00;100736.94;5096731;28;20056;-82
2022/12/08 05:21:08;;;;;;;15.02;8.18;;;;;;;2.73;100.00;100897.34;5096766;28;20028;-83
2022/12/08 05:23:34;;;;;;;16.27;9.82;;;;;;;2.43;100.00;100856.59;5096799;28;20048;-83
2022/12/08 05:26:00;;;;;;;17.17;10.05;;;;;;;2.36;100.00;100855.13;5096703;28;20090;-84
2022/12/08 05:28:26;;;;;;;16.15;8.80;;;;;;;2.00;100.00;100803.47;5096639;28;20055;-84
2022/12/08 05:31:00;;;;;;;14.40;7.75;;;;;;;2.25;100.00;100852.84;5096342;28;20027;-83
2022/12/08 05:33:31;;;;;;;13.75;8.43;;;;;;;2.24;100.00;100845.25;5096596;28;20016;-84
2022/12/08 05:35:56;;;;;;;13.05;7.93;;;;;;;2.32;100.00;100857.78;5095281;28;20051;-83
2022/12/08 05:38:21;;;;;;;15.18;7.78;;;;;;;2.53;100.00;100888.56;5096539;28;20078;-83
2022/12/08 05:40:47;;;;;;;10.70;6.70;;;;;;;2.49;100.00;100888.72;5096714;28;20098;-83
2022/12/08 05:43:12;;;;;;;11.02;6.28;;;;;;;2.37;100.00;100861.88;5095481;28;20070;-85
2022/12/08 05:45:37;;;;;;;9.38;5.55;;;;;;;2.12;100.00;100828.59;5094926;28;20024;-84
2022/12/08 05:48:03;;;;;;;10.35;5.70;;;;;;;2.18;100.00;100840.34;5096412;28;20031;-85
2022/12/08 05:50:29;;;;;;;12.32;5.90;;;;;;;2.23;100.00;100836.75;5096435;28;20444;-84
2022/12/08 05:52:54;;;;;;;9.00;5.28;;;;;;;2.46;100.00;100876.91;5096184;28;20024;-84
2022/12/08 05:55:19;;;;;;;9.05;5.32;;;;;;;2.47;100.00;100868.38;5096343;28;20052;-83
2022/12/08 05:57:45;;;;;;;8.65;4.63;;;;;;;2.24;100.00;100833.34;5096155;28;20028;-85
2022/12/08 06:00:10;;;;;;;9.30;5.22;;;;;;;2.01;100.00;100795.78;5096012;28;20074;-84
2022/12/08 06:02:41;;;;;;;7.93;5.20;;;;;;;2.46;100.00;100870.94;5096068;28;20062;-86
2022/12/08 06:05:07;;;;;;;11.35;4.95;;;;;;;2.48;100.00;100872.59;5096044;28;20103;-86
2022/12/08 06:07:32;;;;;;;9.82;5.30;;;;;;;2.46;100.00;100869.25;5095999;28;20058;-83
2022/12/08 06:09:57;;;;;;;7.93;5.25;;;;;;;1.37;100.00;100689.81;5095812;28;20032;-85
2022/12/08 06:12:23;;;;;;;8.60;5.50;;;;;;;1.78;100.00;100751.50;5095706;28;20031;-84
2022/12/08 06:14:57;;;;;;;12.05;5.72;;;;;;;2.24;100.00;100828.25;5095825;28;20030;-84
2022/12/08 06:17:22;;;;;;;8.75;5.40;;;;;;;1.61;100.00;100719.69;5093871;22;20049;-84
2022/12/08 06:19:48;;;;;;;10.32;5.68;;;;;;;2.51;100.00;100866.56;5075569;28;20118;-84
2022/12/08 06:22:13;;;;;;;8.65;5.25;;;;;;;2.48;100.00;100859.84;5075299;28;20111;-85
2022/12/08 06:24:38;;;;;;;9.38;5.55;;;;;;;1.23;100.00;100644.41;5075249;28;20028;-85
2022/12/08 06:27:13;;;;;;;9.40;5.50;;;;;;;1.53;100.00;100703.78;5074976;28;20527;-85
2022/12/08 06:29:42;;;;;;;8.63;4.97;;;;;;;1.21;100.00;100645.34;5075401;28;20376;-83
2022/12/08 06:32:10;;;;;;;9.18;5.25;;;;;;;1.56;100.00;100706.25;5074945;28;20076;-82
2022/12/08 06:34:47;;;;;;;8.40;5.10;;;;;;;1.67;100.00;100713.56;5075621;28;20024;-83
2022/12/08 06:37:12;;;;;;;8.35;5.15;;;;;;;1.61;100.00;100701.03;5075109;28;20036;-84
2022/12/08 06:39:50;;;;;;;8.07;4.70;;;;;;;1.71;100.00;100718.56;5075166;28;20020;-84
2022/12/08 06:45:00;;;;;;;10.48;5.45;;;;;;;2.55;100.00;100855.38;5075382;28;20098;-83
2022/12/08 06:47:25;;;;;;;8.50;4.63;;;;;;;2.51;100.00;100854.66;5074621;28;20024;-86
2022/12/08 06:49:51;;;;;;;9.27;5.18;;;;;;;2.25;100.00;100811.25;5075152;28;20031;-82
2022/12/08 06:52:18;;;;;;;8.77;4.70;;;;;;;2.56;100.00;100857.91;5074694;28;20407;-87
2022/12/08 06:54:44;;;;;;;10.32;5.22;;;;;;;2.46;100.00;100845.44;5074955;28;20464;-85
2022/12/08 06:57:09;;;;;;;8.57;4.90;;;;;;;2.40;100.00;100831.19;5074752;28;20035;-85
2022/12/08 06:59:34;;;;;;;8.23;4.60;;;;;;;2.59;100.00;100854.44;5074742;28;20103;-81
2022/12/08 07:02:00;;;;;;;9.95;5.25;;;;;;;2.53;100.00;100837.59;5074554;28;20036;-87
2022/12/08 07:04:25;;;;;;;9.02;4.70;;;;;;;2.57;100.00;100846.00;5072874;28;20086;-85
2022/12/08 07:06:50;;;;;;;10.18;4.78;;;;;;;2.56;100.00;100842.63;5074544;28;20078;-86
2022/12/08 07:09:15;;;;;;;8.15;4.80;;;;;;;2.44;100.00;100824.28;5074426;28;20044;-84
2022/12/08 07:11:41;;;;;;;10.10;4.50;;;;;;;2.58;100.00;100852.75;5074608;28;20082;-83
2022/12/08 07:14:06;;;;;;;6.32;4.28;;;;;;;2.62;100.00;100850.94;5074490;28;20025;-86
2022/12/08 07:16:32;;;;;;;8.95;4.78;;;;;;;2.37;100.00;100810.91;5073887;28;20055;-85
2022/12/08 07:18:58;;;;;;;7.22;4.13;;;;;;;2.44;100.00;100822.56;5073965;28;20373;-85
2022/12/08 07:21:23;;;;;;;6.43;4.18;;;;;;;2.59;100.00;100850.16;5074268;28;20047;-86
2022/12/08 07:23:49;;;;;;;8.95;4.43;;;;;;;2.61;100.00;100847.56;5074186;28;20025;-87
2022/12/08 07:26:14;;;;;;;7.70;4.70;;;;;;;2.28;100.00;100808.63;5074192;28;20029;-84
2022/12/08 07:28:41;;;;;;;8.27;4.97;;;;;;;2.17;100.00;100787.72;5073143;28;20380;-80
2022/12/08 07:31:14;;;;;;;8.45;4.70;;;;;;;2.24;100.00;100797.66;5073984;28;20082;-80
2022/12/08 07:33:49;;;;;;;9.02;4.82;;;;;;;1.83;100.00;100724.16;5073972;28;20021;-83
2022/12/08 07:36:21;;;;;;;9.90;5.40;;;;;;;1.66;100.00;100694.09;5056274;28;20024;-83
2022/12/08 07:38:52;;;;;;;9.73;4.88;;;;;;;1.33;100.00;100632.28;5055401;28;20106;-84
2022/12/08 07:41:20;;;;;;;8.77;4.63;;;;;;;2.55;100.00;100840.91;5055844;28;20079;-83
2022/12/08 07:44:01;;;;;;;9.38;5.43;;;;;;;1.42;100.00;100637.94;5073691;28;20278;-83
2022/12/08 07:46:26;;;;;;;9.23;4.77;;;;;;;2.74;100.00;100853.97;5073672;28;20028;-80
2022/12/08 07:48:53;;;;;;;11.73;5.57;;;;;;;2.51;100.00;100813.88;5073543;28;20286;-81
2022/12/08 07:51:18;;;;;;;8.82;5.70;;;;;;;2.51;100.00;100823.22;5073558;28;20025;-82
2022/12/08 07:53:46;;;;;;;10.95;7.03;;;;;;;2.80;100.00;100861.44;5073674;28;20070;-81
2022/12/08 07:56:12;;;;;;;12.07;7.38;;;;;;;2.38;100.00;100804.09;5073819;28;20029;-81
2022/12/08 07:58:38;;;;;;;11.13;6.95;;;;;;;2.79;100.00;100866.59;5073388;28;20032;-79
2022/12/08 08:01:05;;;;;;;10.73;7.25;;;;;;;2.62;100.00;100844.13;5055344;28;20047;-81
2022/12/08 08:03:30;;;;;;;11.40;7.40;;;;;;;2.74;100.00;100869.25;5073312;28;20111;-80
2022/12/08 08:06:03;;;;;;;9.63;7.57;;;;;;;2.73;100.00;100862.50;5073469;28;20056;-80
2022/12/08 08:08:28;;;;;;;11.68;7.85;;;;;;;2.54;100.00;100831.59;5073525;28;20431;-82
2022/12/08 08:10:54;;;;;;;13.35;7.60;;;;;;;2.61;100.00;100847.56;5073417;28;20029;-82
2022/12/08 08:13:19;;;;;;;10.63;7.57;;;;;;;2.76;100.00;100859.88;5073251;28;20070;-81
2022/12/08 08:15:45;;;;;;;12.40;7.50;;;;;;;2.54;100.00;100834.16;5055004;28;20024;-82
2022/12/08 08:18:11;;;;;;;12.25;7.32;;;;;;;2.80;100.00;100873.34;5051247;28;20053;-80
2022/12/08 08:20:36;;;;;;;10.73;7.55;;;;;;;2.71;100.00;100859.16;5053513;28;20055;-82
2022/12/08 08:23:01;;;;;;;10.90;7.85;;;;;;;2.81;100.00;100873.31;5053212;28;20025;-83
2022/12/08 08:25:27;;;;;;;10.57;7.55;;;;;;;2.82;100.00;100872.41;5052002;28;20073;-82
2022/12/08 08:27:53;;;;;;;10.10;7.68;;;;;;;2.84;100.00;100872.38;5047459;28;20029;-80
2022/12/08 08:30:18;;;;;;;8.85;6.38;;;;;;;2.82;100.00;100869.03;5053198;28;20054;-83
2022/12/08 08:32:47;;;;;;;8.90;6.50;;;;;;;2.58;100.00;100833.22;5052933;28;20025;-81
2022/12/08 08:35:21;;;;;;;10.00;6.85;;;;;;;2.66;100.00;100847.44;5052910;28;20025;-80
2022/12/08 08:37:52;;;;;;;11.57;6.70;;;;;;;2.83;100.00;100878.34;5052831;28;20075;-81
2022/12/08 08:40:18;;;;;;;8.63;6.38;;;;;;;2.84;100.00;100867.25;5033915;28;20025;-82
2022/12/08 08:42:43;;;;;;;10.15;6.03;;;;;;;2.65;100.00;100836.38;5033172;28;20533;-80
2022/12/08 08:45:09;;;;;;;8.80;6.20;;;;;;;2.74;100.00;100859.06;5032801;28;20036;-80
2022/12/08 08:47:34;;;;;;;9.05;5.88;;;;;;;2.85;100.00;100869.78;5032858;28;20026;-80
2022/12/08 08:50:00;;;;;;;9.05;6.45;;;;;;;2.85;100.00;100868.94;5035178;28;20036;-80
2022/12/08 08:52:25;;;;;;;8.77;6.30;;;;;;;2.59;100.00;100829.78;5041665;28;20029;-80
2022/12/08 08:54:50;;;;;;;10.35;6.43;;;;;;;2.67;100.00;100841.47;5057589;28;20025;-83
2022/12/08 08:57:16;;;;;;;10.55;6.72;;;;;;;2.74;100.00;100853.97;5056879;28;20032;-82
2022/12/08 08:59:48;;;;;;;8.63;6.32;;;;;;;2.83;100.00;100875.81;5056915;28;20136;-81
2022/12/08 09:02:18;;;;;;;8.68;5.68;;;;;;;2.76;100.00;100861.59;5057117;28;20384;-80
2022/12/08 09:04:43;;;;;;;9.13;6.05;;;;;;;2.84;100.00;100880.00;5056889;28;20067;-81
2022/12/08 09:07:09;;;;;;;8.77;5.35;;;;;;;2.80;100.00;100869.09;5056900;28;20364;-82
2022/12/08 09:09:35;;;;;;;8.20;5.78;;;;;;;2.64;100.00;100836.44;5057023;28;20061;-82
2022/12/08 09:12:00;;;;;;;9.40;6.07;;;;;;;2.84;100.00;100870.66;5056478;28;20055;-83
2022/12/08 09:14:26;;;;;;;7.85;5.65;;;;;;;2.90;100.00;100876.47;5056725;28;20017;-82
2022/12/08 09:16:52;;;;;;;8.50;5.55;;;;;;;2.72;100.00;100832.78;5056666;28;20096;-82
2022/12/08 09:19:17;;;;;;;8.70;5.28;;;;;;;2.96;100.00;100860.97;5076539;28;20021;-84
2022/12/08 09:21:43;;;;;;;8.40;5.22;;;;;;;2.26;100.00;100746.66;5076692;28;20111;-84
2022/12/08 09:24:14;;;;;;;8.68;5.30;;;;;;;3.08;100.00;100860.59;5076631;28;20373;-83
2022/12/08 09:26:41;;;;;;;9.02;5.20;;;;;;;3.15;100.00;100862.06;5076369;28;20141;-82
2022/12/08 09:29:07;;;;;;;9.73;5.45;;;;;;;3.14;100.00;100845.06;5076350;28;20025;-82
2022/12/08 09:31:32;;;;;;;7.93;4.75;;;;;;;3.13;100.00;100843.41;5076479;28;20464;-82
2022/12/08 09:33:58;;;;;;;6.30;4.50;;;;;;;3.22;100.00;100857.59;5076231;28;20095;-82
2022/12/08 09:36:24;;;;;;;7.60;4.30;;;;;;;3.01;100.00;100816.56;5076280;28;20021;-82
2022/12/08 09:38:50;;;;;;;8.80;4.70;;;;;;;3.07;100.00;100823.22;5076159;28;20032;-82
2022/12/08 09:41:22;;;;;;;7.55;4.68;;;;;;;3.29;100.00;100847.13;5057860;28;20036;-81
2022/12/08 09:43:50;;;;;;;7.45;4.05;;;;;;;3.29;100.00;100846.31;5074097;28;20438;-83
2022/12/08 09:46:18;;;;;;;7.07;4.20;;;;;;;3.27;100.00;100843.81;5076473;28;20369;-79
2022/12/08 09:48:54;;;;;;;8.07;4.20;;;;;;;3.13;100.00;100826.38;5075845;28;20451;-80
2022/12/08 09:51:23;;;;;;;7.32;4.55;;;;;;;3.10;100.00;100813.72;5075315;28;20058;-80
2022/12/08 09:54:07;;;;;;;6.32;3.90;;;;;;;3.22;100.00;100830.34;5076168;28;20383;-79
2022/12/08 09:56:35;;;;;;;9.05;4.40;;;;;;;3.31;100.00;100847.91;5057708;28;20127;-81
2022/12/08 09:59:33;;;;;;;7.90;4.22;;;;;;;3.33;100.00;100851.25;5075977;28;20166;-79
2022/12/08 10:02:19;;;;;;;7.28;3.90;;;;;;;2.81;100.00;100767.91;5057095;28;20357;-82
2022/12/08 10:04:45;;;;;;;13.73;4.50;;;;;;;2.34;100.00;100683.56;5049137;28;20045;-82
2022/12/08 10:07:51;;;;;;;8.45;4.00;;;;;;;3.31;100.00;100850.47;5055658;28;20025;-84
2022/12/08 10:10:35;;;;;;;7.45;3.75;;;;;;;3.34;100.00;100845.28;5055829;28;20029;-83
2022/12/08 10:13:22;;;;;;;7.00;3.88;;;;;;;3.35;100.00;100852.06;5055614;28;20037;-84
2022/12/08 10:15:56;;;;;;;6.43;3.67;;;;;;;3.30;100.00;100851.34;5055556;28;20512;-84
2022/12/08 10:18:31;;;;;;;7.32;3.38;;;;;;;2.92;100.00;100775.22;5055259;28;20084;-83
2022/12/08 10:21:13;;;;;;;6.75;3.22;;;;;;;2.99;100.00;100787.72;5055082;28;20130;-83
2022/12/08 10:23:40;;;;;;;5.57;3.25;;;;;;;3.01;100.00;100785.97;5047653;28;20417;-82
2022/12/08 10:26:12;;;;;;;6.85;3.60;;;;;;;3.07;100.00;100800.25;5035373;28;20057;-84
2022/12/08 10:28:37;;;;;;;7.07;3.40;;;;;;;2.29;100.00;100672.69;5035350;28;20033;-84
2022/12/08 10:31:02;;;;;;;11.07;3.85;;;;;;;3.33;100.00;100835.94;5035165;28;20072;-83
2022/12/08 10:33:31;;;;;;;7.18;3.55;;;;;;;3.35;100.00;100835.91;5050297;28;20112;-82
2022/12/08 10:35:59;;;;;;;7.80;3.50;;;;;;;3.37;100.00;100836.69;5034992;28;20029;-83
2022/12/08 10:38:27;;;;;;;6.90;3.60;;;;;;;3.34;100.00;100836.75;5034839;28;20074;-82
2022/12/08 10:41:10;;;;;;;8.10;3.70;;;;;;;2.39;100.00;100668.97;5035355;28;20029;-84
2022/12/08 10:43:41;;;;;;;9.43;4.05;;;;;;;3.35;100.00;100820.59;5035085;28;20033;-80
2022/12/08 10:52:24;;;;;;;7.28;4.22;;;;;;;2.09;100.00;100609.66;5055353;28;20401;-84
2022/12/08 10:55:00;;;;;;;7.82;4.20;;;;;;;2.95;100.00;100739.41;5054984;28;20024;-85
2022/12/08 10:57:25;;;;;;;9.45;4.40;;;;;;;2.60;100.00;100664.91;5054739;28;20488;-83
2022/12/08 11:00:15;;;;;;;10.13;4.68;;;;;;;3.61;100.00;100827.34;5054865;28;20031;-84
2022/12/08 11:03:18;;;;;;;10.73;5.60;;;;;;;3.65;100.00;100818.72;5054987;28;20358;-82
2022/12/08 11:05:44;;;;;;;8.38;4.82;;;;;;;3.67;100.00;100822.06;5054074;28;20366;-83
2022/12/08 11:08:22;;;;;;;11.00;5.50;;;;;;;2.91;100.00;100690.22;5054583;28;20059;-83
2022/12/08 11:10:57;;;;;;;8.13;5.10;;;;;;;3.78;100.00;100814.00;5054444;28;20059;-84
2022/12/08 11:13:40;;;;;;;9.23;5.80;;;;;;;3.40;100.00;100739.56;5053590;28;20028;-83
2022/12/08 11:16:06;;;;;;;8.55;4.47;;;;;;;3.81;100.00;100813.91;5054382;28;20035;-85
2022/12/08 11:18:46;;;;;;;7.93;4.07;;;;;;;3.76;100.00;100814.06;5054251;28;20029;-83
2022/12/08 11:21:17;;;;;;;6.38;4.13;;;;;;;3.39;100.00;100773.66;5054150;28;20032;-80
2022/12/08 11:23:48;;;;;;;8.50;5.00;;;;;;;3.28;100.00;100751.03;5054427;28;20115;-82
2022/12/08 11:26:31;;;;;;;7.75;4.78;;;;;;;3.61;100.00;100804.38;5054276;28;20440;-82
2022/12/08 11:28:56;;;;;;;7.63;5.07;;;;;;;3.51;100.00;100785.97;5054002;28;20087;-81
2022/12/08 11:31:33;;;;;;;7.20;4.50;;;;;;;3.68;100.00;100799.00;5052742;28;20044;-83
2022/12/08 11:34:00;;;;;;;7.22;4.43;;;;;;;3.69;100.00;100798.13;5054164;28;20025;-82
2022/12/08 11:36:28;;;;;;;6.35;4.78;;;;;;;3.57;100.00;100765.34;5053988;28;20067;-82
2022/12/08 11:39:08;;;;;;;6.97;4.80;;;;;;;3.47;100.00;100746.16;5051989;28;20068;-83
2022/12/08 11:41:41;;;;;;;6.18;4.68;;;;;;;3.49;100.00;100744.38;5051720;28;20032;-82
2022/12/08 11:44:12;;;;;;;8.27;5.00;;;;;;;3.73;100.00;100793.72;5057143;22;20048;-81
2022/12/08 11:47:04;;;;;;;6.30;4.85;;;;;;;2.42;100.00;100578.84;5052667;28;20083;-84